FW3218 Weather Reports


Display with metric or nautical units.
time (UTC)temp
F
wind
direction
speed
MPH
gust
MPH
rain 1hr
in
rain 24hr
in
rain mn
in
humidity
%
barometer
mb
20200710172822 73 84 0.0 3.0 0.34 0.34 0.34 86 993.1
20200710172315 73 126 0.0 6.0 0.31 0.31 0.31 86 993.4
20200710171829 73 109 3.0 9.0 0.28 0.28 0.28 86 991.7
20200710171323 73 68 1.0 12.0 0.27 0.27 0.27 85 992.5
20200710170817 73 166 6.0 21.0 0.27 0.27 0.27 84 992.6
20200710170314 75 131 10.0 21.0 0.25 0.25 0.25 82 992.5
20200710165828 79 96 10.0 17.0 0.24 0.24 0.24 79 992.8
20200710165322 84 110 7.0 15.0 0.13 0.13 0.13 76 992.9
20200710164816 87 139 1.0 2.0 0.00 0.00 0.00 72
20200710164329 88 133 1.0 2.0 0.00 0.00 0.00 69 990.8
20200710163823 89 65 1.0 2.0 0.00 0.00 0.00 67 991.1
20200710163318 89 79 1.0 3.0 0.00 0.00 0.00 64 991.4
20200710162815 89 235 1.0 3.0 0.00 0.00 0.00 66 991.6
20200710162328 89 308 1.0 3.0 0.00 0.00 0.00 64 991.9
20200710161820 89 68 1.0 4.0 0.00 0.00 0.00 66 992.0
20200710161313 89 285 2.0 4.0 0.00 0.00 0.00 64 992.2
20200710160827 89 69 1.0 8.0 0.00 0.00 0.00 67 992.4
20200710160321 88 280 2.0 9.0 0.00 0.00 0.00 66 992.5
20200710155813 88 98 2.0 9.0 0.00 0.00 0.00 66 992.6
20200710155327 88 271 3.0 7.0 0.00 0.00 0.00 65 992.6
20200710154825 88 21 0.0 4.0 0.00 0.00 0.00 67 992.7
20200710154319 88 319 1.0 3.0 0.00 0.00 0.00 68 992.8
20200710153813 87 302 0.0 5.0 0.00 0.00 0.00 69 992.9
20200710153326 87 315 1.0 6.0 0.00 0.00 0.00 69 993.0
20200710152819 86 277 1.0 6.0 0.00 0.00 0.00 73 993.1
20200710152313 86 269 3.0 5.0 0.00 0.00 0.00 69 993.1
20200710151826 86 13 3.0 5.0 0.00 0.00 0.00 71 993.2
20200710151319 86 290 2.0 6.0 0.00 0.00 0.00 71 993.3
20200710150817 85 287 3.0 5.0 0.00 0.00 0.00 70 993.3
20200710150331 85 314 2.0 4.0 0.00 0.00 0.00 71 993.4
20200710145824 85 342 1.0 8.0 0.00 0.00 0.00 72 993.4
20200710145318 84 308 3.0 8.0 0.00 0.00 0.00 72 993.6
20200710144832 85 287 1.0 5.0 0.00 0.00 0.00 72 993.7
20200710144326 84 81 2.0 6.0 0.00 0.00 0.00 73 994.0
20200710143819 84 293 1.0 5.0 0.00 0.00 0.00 72 991.7
20200710143317 84 314 2.0 7.0 0.00 0.00 0.00 73 992.5
20200710142830 84 290 1.0 7.0 0.00 0.00 0.00 72 992.8
20200710142324 84 300 2.0 3.0 0.00 0.00 0.00 73 992.9
20200710141818 84 160 0.0 1.0 0.00 0.00 0.00 75 992.9
20200710141332 83 257 0.0 3.0 0.00 0.00 0.00 77 993.2
20200710140825 83 236 0.0 3.0 0.00 0.00 0.00 77 993.3
20200710140320 83 103 0.0 3.0 0.00 0.00 0.00 79 993.4
20200710135832 82 238 0.0 5.0 0.00 0.00 0.00 79 993.6
20200710135330 82 286 1.0 5.0 0.00 0.00 0.00 77 993.7
20200710134823 82 298 1.0 3.0 0.00 0.00 0.00 78 993.9
20200710134316 81 172 0.0 1.0 0.00 0.00 0.00 80 993.9
20200710133830 80 262 0.0 2.0 0.00 0.00 0.00 80 994.0
20200710133324 80 92 1.0 4.0 0.00 0.00 0.00 80 994.1
20200710132817 79 274 1.0 4.0 0.00 0.00 0.00 80 994.2
20200710132331 80 307 1.0 1.0 0.00 0.00 0.00 80 994.3
20200710131824 79 205 0.0 2.0 0.00 0.00 0.00 82 994.3
20200710131322 79 44 1.0 3.0 0.00 0.00 0.00 81 994.4
20200710130815 78 276 0.0 5.0 0.00 0.00 0.00 83 994.5
20200710130329 78 80 2.0 5.0 0.00 0.00 0.00 82 994.6
20200710125822 78 56 0.0 3.0 0.00 0.00 0.00 83 994.7
20200710125316 77 91 0.0 2.0 0.00 0.00 0.00 85 994.8
20200710124830 76 79 1.0 6.0 0.00 0.00 0.00 85 994.9
20200710124324 76 286 3.0 6.0 0.00 0.00 0.00 86 994.9
20200710123821 75 261 2.0 5.0 0.00 0.00 0.00 87 994.9
20200710123315 75 304 1.0 3.0 0.00 0.00 0.00 87 994.9
20200710122828 74 67 0.0 2.0 0.00 0.00 0.00 86 994.8
20200710122321 74 294 0.0 1.0 0.00 0.00 0.00 85 994.9
20200710121815 74 239 0.0 3.0 0.00 0.00 0.00 82 994.9
20200710121328 73 239 0.0 3.0 0.00 0.00 0.00 82 994.5
20200710120822 73 314 0.0 1.0 0.00 0.00 0.00 82 994.7
20200710120315 72 314 0.0 1.0 0.00 0.00 0.00 82 993.8
20200710115813 72 315 0.0 0.0 0.00 0.00 0.00 82 994.4
20200710115326 73 314 0.0 0.0 0.00 0.00 0.00 82 994.6
20200710114820 72 315 0.0 0.0 0.00 0.00 0.00 82 994.6
20200710114314 71 315 0.0 0.0 0.00 0.00 0.00 82 994.8
20200710113828 70 315 0.0 0.0 0.00 0.00 0.00 82
20200710113321 70 315 0.0 0.0 0.00 0.00 0.00 82 993.7
20200710112815 69 314 0.0 1.0 0.00 0.00 0.00 82 993.9
20200710112328 68 315 0.0 1.0 0.00 0.00 0.00 82 994.2
20200710111825 68 315 0.0 0.0 0.00 0.00 0.00 82 994.3
20200710111318 68 314 0.0 0.0 0.00 0.00 0.00 82 994.5
20200710110831 68 314 0.0 0.0 0.00 0.00 0.00 82 994.6
20200710110324 67 314 0.0 0.0 0.00 0.00 0.00 82 994.7
20200710105818 67 304 0.0 0.0 0.00 0.00 0.00 82 994.7
20200710105331 67 304 0.0 0.0 0.00 0.00 0.00 82 994.7
20200710104825 66 304 0.0 0.0 0.00 0.00 0.00 82 994.7
20200710104323 66 304 0.0 0.0 0.00 0.00 0.00 82 994.7
20200710103815 66 304 0.0 0.0 0.00 0.00 0.00 82 994.8
20200710103328 67 304 0.0 0.0 0.00 0.00 0.00 82 994.8
20200710102823 67 304 0.0 0.0 0.00 0.00 0.00 82 995.0
20200710102315 67 304 0.0 0.0 0.00 0.00 0.00 82 995.1
20200710101830 66 304 0.0 0.0 0.00 0.00 0.00 82 994.2
20200710101324 66 304 0.0 0.0 0.00 0.00 0.00 82 994.7
20200710100817 66 304 0.0 0.0 0.00 0.00 0.00 82 994.8
20200710100314 67 304 0.0 0.0 0.00 0.00 0.00 82 993.7
20200710095828 67 304 0.0 0.0 0.00 0.00 0.00 82 994.2
20200710095321 67 304 0.0 0.0 0.00 0.00 0.00 82 994.5
20200710094815 67 304 0.0 0.0 0.00 0.00 0.00 82 993.9
20200710094328 67 304 0.0 0.0 0.00 0.00 0.00 82 992.6
20200710093818 66 304 0.0 0.0 0.00 0.00 0.00 82 993.5
20200710093332 67 304 0.0 0.0 0.00 0.00 0.00 82 993.7
20200710092824 67 304 0.0 0.0 0.00 0.00 0.00 82 993.8
20200710092321 67 304 0.0 0.0 0.00 0.00 0.00 82 993.9
20200710091814 67 304 0.0 1.0 0.00 0.00 0.00 82 994.0
20200710091328 67 304 0.0 0.0 0.00 0.00 0.00 82 994.1
20200710090821 67 304 0.0 0.0 0.00 0.00 0.00 82 994.1
20200710090314 67 304 0.0 1.0 0.00 0.00 0.00 82 994.2
20200710085829 67 304 0.0 1.0 0.00 0.00 0.00 82 994.2
20200710085322 67 304 0.0 1.0 0.00 0.00 0.00 83 994.2
20200710084820 68 304 0.0 1.0 0.00 0.00 0.00 82 994.3
20200710084312 68 305 1.0 1.0 0.00 0.00 0.00 82 994.3
20200710083825 67 304 0.0 0.0 0.00 0.00 0.00 83 994.4
20200710083319 68 304 0.0 0.0 0.00 0.00 0.00 83 994.6
20200710082813 68 304 0.0 0.0 0.00 0.00 0.00 82 994.7
20200710082326 68 304 0.0 0.0 0.00 0.00 0.00 82 994.8
20200710081819 68 304 0.0 0.0 0.00 0.00 0.00 82 995.0
20200710081312 68 304 0.0 0.0 0.00 0.00 0.00 82 995.1
20200710080829 68 304 0.0 0.0 0.00 0.00 0.00 83 995.1
20200710080323 68 304 0.0 0.0 0.00 0.00 0.00 83 995.1
20200710075816 68 304 0.0 0.0 0.00 0.00 0.00 83 995.1
20200710075330 68 304 0.0 0.0 0.00 0.00 0.00 84 940.5
20200710074824 68 304 0.0 0.0 0.00 0.00 0.00 83 994.7
20200710074317 68 304 0.0 0.0 0.00 0.00 0.00 83 994.8
20200710073830 68 304 0.0 0.0 0.00 0.00 0.00 84 996.1
20200710073324 69 304 0.0 0.0 0.00 0.00 0.00 84 994.7
20200710072821 69 304 0.0 0.0 0.00 0.00 0.00 84 995.0
20200710072315 69 304 0.0 0.0 0.00 0.00 0.00 84 994.5
20200710071828 69 304 0.0 0.0 0.00 0.00 0.00 84 994.1
20200710071320 69 304 0.0 0.0 0.00 0.00 0.00 84 994.4
20200710070813 69 304 0.0 0.0 0.00 0.00 0.00 84 994.7
20200710070327 69 304 0.0 0.0 0.00 0.00 0.00 85 994.8
20200710065820 69 304 0.0 0.0 0.00 0.00 0.00 85 995.1
20200710065317 69 304 0.0 0.0 0.00 0.00 0.00 85 299.0
20200710064830 69 304 0.0 0.0 0.00 0.00 0.00 85 993.7
20200710064324 69 304 0.0 0.0 0.00 0.00 0.00 86 994.0
20200710063817 70 304 0.0 0.0 0.00 0.00 0.00 86 994.4
20200710063330 70 304 0.0 0.0 0.00 0.00 0.00 86 994.5
20200710062823 70 304 0.0 0.0 0.00 0.00 0.00 86 994.5
20200710062316 70 304 0.0 0.0 0.00 0.00 0.00 87 994.6
20200710061830 71 304 0.0 0.0 0.00 0.00 0.00 86 994.6
20200710061328 70 304 0.0 0.0 0.00 0.00 0.00 87 994.8
20200710060821 70 304 0.0 0.0 0.00 0.00 0.00 87 994.9
20200710060313 71 304 0.0 0.0 0.00 0.00 0.00 87 995.0
20200710055827 71 304 0.0 0.0 0.00 0.00 0.00 88 995.0
20200710055320 71 304 0.0 0.0 0.00 0.00 0.00 88 995.0
20200710054814 71 304 0.0 0.0 0.00 0.00 0.00 88 995.0
20200710054327 71 304 0.0 0.0 0.00 0.00 0.00 88 995.1
20200710053822 72 304 0.0 0.0 0.00 0.00 0.00 88 995.3
20200710053319 72 304 0.0 0.0 0.00 0.00 0.00 88 995.3
20200710041827 73 274 0.0 1.0 0.00 0.00 0.00 88 994.8
20200710041324 73 274 0.0 1.0 0.00 0.00 0.00 88 994.1
20200710040817 73 274 0.0 2.0 0.00 0.00 0.00 88 994.5
20200710040330 72 260 0.0 2.0 0.00 0.00 0.00 87 994.9
20200710035822 72 156 0.0 0.0 0.00 0.00 0.00 87
20200710035315 72 157 0.0 0.0 0.00 0.00 0.00 87 993.4
20200710034828 72 156 0.0 1.0 0.00 0.00 0.00 87 993.9
20200710034321 72 157 0.0 1.0 0.00 0.00 0.00 87 994.3
20200710033817 73 157 0.0 1.0 0.00 0.00 0.00 86 994.6
20200710033331 73 190 0.0 1.0 0.00 0.00 0.00 86 994.6
20200710032824 73 188 0.0 1.0 0.00 0.00 0.00 86 994.7
20200710032316 73 188 0.0 1.0 0.00 0.00 0.00 86 994.6
20200710031820 73 146 0.0 1.0 0.00 0.00 0.00 87 994.6
20200710031312 73 146 0.0 1.0 0.00 0.00 0.00 87 994.7
20200710030825 74 153 0.0 0.0 0.00 0.00 0.00 87 994.7
20200710030318 74 153 0.0 0.0 0.00 0.00 0.00 87 994.6
20200710025816 74 153 0.0 0.0 0.00 0.00 0.00 87 994.6
20200710025330 74 153 0.0 0.0 0.00 0.00 0.00 87 994.6
20200710024823 74 154 0.0 1.0 0.00 0.00 0.00 87 994.7
20200710024317 75 153 0.0 1.0 0.00 0.00 0.00 87 994.6
20200710023831 75 149 0.0 1.0 0.00 0.00 0.00 87 994.7
20200710023323 75 146 0.0 1.0 0.00 0.00 0.00 87 994.7
20200710022831 75 147 0.0 0.0 0.00 0.00 0.00 87 994.8
20200710022320 75 146 0.0 1.0 0.00 0.00 0.00 87 994.9
20200710021818 75 147 0.0 0.0 0.00 0.00 0.00 87 994.9
20200710021312 76 146 0.0 0.0 0.00 0.00 0.00 86 995.0
20200710020827 76 146 0.0 0.0 0.00 0.00 0.00 86 993.8
20200710020321 76 146 0.0 0.0 0.00 0.00 0.00 86 992.7
20200710015816 76 146 0.0 0.0 0.00 0.00 0.00 85 993.4
20200710015329 77 146 0.0 0.0 0.00 0.00 0.00 85 993.7
20200710014824 77 146 0.0 0.0 0.00 0.00 0.00 85 993.7
20200710014319 77 146 0.0 0.0 0.00 0.00 0.00 84 993.8
20200710013813 78 147 0.0 0.0 0.00 0.00 0.00 83 993.9
20200710013327 78 147 0.0 0.0 0.00 0.00 0.00 82 994.0
20200710012821 78 146 0.0 0.0 0.00 0.00 0.00 81 994.0
20200710012314 79 146 0.0 0.0 0.00 0.00 0.00 81 994.0
20200710011828 79 147 0.0 1.0 0.00 0.00 0.00 81 994.1
20200710011322 80 146 0.0 1.0 0.00 0.00 0.00 81 994.2
20200710010815 80 147 0.0 0.0 0.00 0.00 0.00 78 994.2
20200710010313 81 146 0.0 0.0 0.00 0.00 0.00 76 992.8
20200710005826 82 147 0.0 0.0 0.00 0.00 0.00 74 993.2
20200710005318 82 146 0.0 0.0 0.00 0.00 0.00 72 993.6
20200710004812 83 147 0.0 1.0 0.00 0.00 0.00 72 993.9
20200710004325 84 147 0.0 1.0 0.00 0.00 0.00 70 994.2
20200710003819 85 146 0.0 0.0 0.00 0.00 0.00 68 993.0
20200710003312 87 146 0.0 0.0 0.00 0.00 0.00 66 993.6
20200710002826 88 147 0.0 0.0 0.00 0.00 0.00 63 992.7
20200710002324 89 147 0.0 1.0 0.00 0.00 0.00 62 993.2
20200710001817 89 147 0.0 1.0 0.00 0.00 0.00 61 993.4
20200710001331 90 146 0.0 0.0 0.00 0.00 0.00 61 993.5
20200710000825 90 146 0.0 1.0 0.00 0.00 0.00 61 993.7
20200710000319 91 147 0.0 1.0 0.00 0.00 0.00 59 993.7
20200709235812 91 145 0.0 1.0 0.00 0.00 0.00 60 993.8
20200709235326 91 145 0.0 1.0 0.00 0.00 0.00 59 993.7
20200709234820 92 147 0.0 1.0 0.00 0.00 0.00 58 993.7
20200709234317 92 146 0.0 1.0 0.00 0.00 0.00 57 993.6
20200709233832 92 146 0.0 1.0 0.00 0.00 0.00 58 993.6
20200709233325 92 150 0.0 1.0 0.00 0.00 0.00 57 993.8
20200709232818 93 151 0.0 1.0 0.00 0.00 0.00 56 991.7
20200709232312 93 150 0.0 1.0 0.00 0.00 0.00 55 992.2
20200709231826 92 126 0.0 1.0 0.00 0.00 0.00 54 992.4
20200709231319 92 125 0.0 1.0 0.00 0.00 0.00 52 992.5
20200709230817 93 145 1.0 1.0 0.00 0.00 0.00 53 992.5
20200709230330 93 150 0.0 1.0 0.00 0.00 0.00 55 992.7
20200709225824 93 149 0.0 2.0 0.00 0.00 0.00 53 992.6
20200709225318 94 153 0.0 1.0 0.00 0.00 0.00 53 992.7
20200709224811 94 153 0.0 1.0 0.00 0.00 0.00 53 992.9
20200709224325 94 129 0.0 1.0 0.00 0.00 0.00 55 992.8
20200709223819 94 129 0.0 2.0 0.00 0.00 0.00 52 992.9
20200709223313 93 75 0.0 3.0 0.00 0.00 0.00 51 993.0
20200709222831 93 329 1.0 3.0 0.00 0.00 0.00 49 993.1
20200709222323 94 219 1.0 3.0 0.00 0.00 0.00 50 993.1
20200709221816 94 229 0.0 3.0 0.00 0.00 0.00 52 993.1
20200709221329 94 243 1.0 3.0 0.00 0.00 0.00 51 993.1
20200709220824 94 215 0.0 3.0 0.00 0.00 0.00 50 993.1
20200709220317 94 141 1.0 3.0 0.00 0.00 0.00 51 993.1
20200709215831 94 63 1.0 2.0 0.00 0.00 0.00 48 993.2
20200709215324 94 170 0.0 5.0 0.00 0.00 0.00 54 993.2
20200709214822 93 148 1.0 5.0 0.00 0.00 0.00 52 993.2
20200709214317 94 69 1.0 4.0 0.00 0.00 0.00 47 993.3
20200709213829 94 229 1.0 2.0 0.00 0.00 0.00 52 993.3
20200709213323 93 123 0.0 4.0 0.00 0.00 0.00 53 993.4
20200709212816 93 119 1.0 4.0 0.00 0.00 0.00 54 993.4
20200709212329 93 287 2.0 5.0 0.00 0.00 0.00 49 993.5
20200709211823 93 221 3.0 6.0 0.00 0.00 0.00 50 993.6
20200709211322 92 302 2.0 6.0 0.00 0.00 0.00 50 993.6
20200709210816 92 277 2.0 6.0 0.00 0.00 0.00 52 993.6
20200709210330 92 312 3.0 10.0 0.00 0.00 0.00 48 993.7
20200709205825 93 305 4.0 10.0 0.00 0.00 0.00 49 993.7
20200709205320 93 298 2.0 4.0 0.00 0.00 0.00 50 993.7
20200709204813 93 306 2.0 5.0 0.00 0.00 0.00 50 993.8
20200709204328 93 18 1.0 5.0 0.00 0.00 0.00 48 993.8
20200709203822 93 304 1.0 3.0 0.00 0.00 0.00 50 993.9
20200709203321 93 302 1.0 3.0 0.00 0.00 0.00 50 994.0
20200709202816 92 115 0.0 6.0 0.00 0.00 0.00 54 994.0
20200709202330 91 250 3.0 9.0 0.00 0.00 0.00 52 994.0
20200709201824 92 323 5.0 9.0 0.00 0.00 0.00 51 994.0
20200709201319 92 304 3.0 7.0 0.00 0.00 0.00 52 994.1
20200709200813 92 81 2.0 11.0 0.00 0.00 0.00 53 994.2
20200709200326 91 323 6.0 11.0 0.00 0.00 0.00 50 994.3
20200709195824 92 318 3.0 6.0 0.00 0.00 0.00 52 994.4
20200709195319 92 308 4.0 6.0 0.00 0.00 0.00 50 994.3
20200709194813 93 304 2.0 7.0 0.00 0.00 0.00 49 994.5
20200709194328 93 207 2.0 7.0 0.00 0.00 0.00 49 994.6
20200709193821 93 119 2.0 3.0 0.00 0.00 0.00 49 994.7
20200709193314 93 300 1.0 4.0 0.00 0.00 0.00 54 994.8
20200709192828 92 68 2.0 4.0 0.00 0.00 0.00 53 994.9
20200709192324 91 302 3.0 4.0 0.00 0.00 0.00 53 994.9
20200709191822 91 298 1.0 3.0 0.00 0.00 0.00 52 995.0
20200709191317 90 257 1.0 2.0 0.00 0.00 0.00 53 995.1
20200709190811 91 257 1.0 6.0 0.00 0.00 0.00 51 995.5
20200709190326 92 211 3.0 6.0 0.00 0.00 0.00 49 991.5
20200709185821 92 319 2.0 5.0 0.00 0.00 0.00 50 992.8
20200709185314 92 128 1.0 4.0 0.00 0.00 0.00 53 993.3
20200709184829 92 306 2.0 4.0 0.00 0.00 0.00 49 994.2
20200709184327 92 283 1.0 6.0 0.00 0.00 0.00 51 994.4
20200709183821 91 267 3.0 6.0 0.00 0.00 0.00 50 994.6